createdAt,value
2017-05-03T17:40:17.521Z,2644
2017-05-03T17:41:18.311Z,2588
2017-05-03T17:42:19.086Z,2512
2017-05-03T17:43:19.943Z,2428
2017-05-03T17:44:20.621Z,2360
2017-05-03T17:45:21.291Z,2292
2017-05-03T17:46:22.500Z,2216
2017-05-03T17:47:22.910Z,2148
2017-05-03T17:48:23.583Z,2104
2017-05-03T17:49:24.282Z,2044
2017-05-03T17:50:24.954Z,1988
2017-05-03T17:51:25.663Z,1936
2017-05-03T17:52:26.357Z,1892
2017-05-03T17:53:27.274Z,1844
2017-05-03T17:54:28.079Z,1800
2017-05-03T17:55:28.733Z,1760
2017-05-03T17:56:29.405Z,1712
2017-05-03T17:57:30.157Z,1664
2017-05-03T17:58:31.025Z,1624
2017-05-03T17:59:32.724Z,1588
2017-05-03T18:00:33.539Z,1552
2017-05-03T18:01:34.247Z,1508
2017-05-03T18:02:34.988Z,1472
2017-05-03T18:03:35.664Z,1432
2017-05-03T18:04:37.408Z,1400
2017-05-03T18:05:38.089Z,1356
2017-05-03T18:06:38.814Z,1300
2017-05-03T18:07:39.659Z,1252
2017-05-03T18:08:40.649Z,1200
2017-05-03T18:09:41.926Z,1140
2017-05-03T18:10:43.539Z,1092
2017-05-03T18:11:44.227Z,1048
2017-05-03T18:12:44.987Z,1004
2017-05-03T18:13:45.666Z,964
2017-05-03T18:14:46.461Z,936
2017-05-03T18:15:48.039Z,900
2017-05-03T18:16:49.529Z,876
2017-05-03T18:17:50.276Z,840
2017-05-03T18:18:50.971Z,808
2017-05-03T18:19:51.649Z,776
2017-05-03T18:20:52.452Z,744
2017-05-03T18:21:53.214Z,708
2017-05-03T18:22:53.915Z,676
2017-05-03T18:23:54.679Z,648
2017-05-03T18:24:55.626Z,612
2017-05-03T18:25:56.359Z,580
2017-05-03T18:26:57.090Z,556
2017-05-03T18:27:57.846Z,528
2017-05-03T18:28:58.851Z,500
2017-05-03T18:29:59.746Z,476
2017-05-03T18:31:00.488Z,452
2017-05-03T18:32:01.182Z,432
2017-05-03T18:33:01.882Z,404
2017-05-03T18:34:02.588Z,376
2017-05-03T18:35:03.389Z,352
2017-05-03T18:36:04.107Z,324
2017-05-03T18:37:04.978Z,292
2017-05-03T18:38:05.888Z,260
2017-05-03T18:39:06.594Z,228
2017-05-03T18:40:07.398Z,204
2017-05-03T18:41:08.155Z,184
2017-05-03T18:42:08.977Z,168
2017-05-03T18:43:09.793Z,156
2017-05-03T18:44:10.567Z,140
2017-05-03T18:45:11.355Z,128
2017-05-03T18:46:12.201Z,116
2017-05-03T18:47:13.123Z,100
2017-05-03T18:48:13.917Z,92
2017-05-03T18:49:14.623Z,80
2017-05-03T18:50:15.295Z,68
2017-05-03T18:51:15.964Z,64
2017-05-03T18:52:16.634Z,64
2017-05-03T18:53:17.305Z,60
2017-05-03T18:54:17.981Z,60
2017-05-03T18:55:18.655Z,52
2017-05-03T18:56:19.325Z,52
2017-05-03T18:57:20.051Z,48
2017-05-03T18:58:20.722Z,44
2017-05-03T18:59:21.390Z,40
2017-05-03T19:00:22.068Z,44
2017-05-03T19:01:22.753Z,40
2017-05-03T19:02:23.429Z,36
2017-05-03T19:03:24.089Z,32
2017-05-03T19:04:24.766Z,32
2017-05-03T19:05:25.449Z,28
2017-05-03T19:06:26.125Z,28
2017-05-03T19:07:26.822Z,24
2017-05-03T19:08:27.623Z,20
2017-05-03T19:09:28.293Z,16
2017-05-03T19:10:28.978Z,12
2017-05-03T19:11:29.725Z,12
2017-05-03T19:12:30.366Z,12
2017-05-03T19:13:31.038Z,12
2017-05-03T19:14:31.738Z,8
2017-05-03T19:15:32.428Z,8
2017-05-03T19:16:33.096Z,4
2017-05-03T19:17:33.782Z,8
2017-05-03T19:18:34.453Z,4
2017-05-03T19:19:35.116Z,8
2017-05-03T19:20:35.782Z,4
2017-05-03T19:21:36.459Z,4
2017-05-03T19:22:37.200Z,0
2017-05-03T19:23:37.885Z,4
2017-05-03T19:24:38.576Z,4
2017-05-03T19:25:39.264Z,4
2017-05-03T19:26:39.966Z,4
2017-05-03T19:27:40.656Z,0
2017-05-03T19:28:41.319Z,0
2017-05-03T19:29:42.002Z,0
2017-05-03T19:30:42.675Z,0
2017-05-03T19:31:43.338Z,0
2017-05-03T19:32:44.006Z,0
2017-05-03T19:33:44.739Z,0
2017-05-03T19:34:45.402Z,0
2017-05-03T19:35:46.655Z,0
2017-05-03T19:36:48.545Z,0
2017-05-03T19:37:49.263Z,0
2017-05-03T19:38:50.300Z,0
2017-05-03T19:39:50.967Z,0
2017-05-03T19:40:51.705Z,0
2017-05-03T19:41:52.394Z,0
2017-05-03T19:42:53.080Z,0
2017-05-03T19:43:53.850Z,0
2017-05-03T19:44:55.064Z,0
2017-05-03T19:45:56.223Z,0
2017-05-03T19:46:56.905Z,0
2017-05-03T19:47:57.633Z,0
2017-05-03T19:48:58.401Z,0
2017-05-03T19:49:59.206Z,0
2017-05-03T19:51:00.029Z,0
2017-05-03T19:52:00.908Z,0
2017-05-03T19:53:01.852Z,0
2017-05-03T19:54:02.742Z,0
2017-05-03T19:55:03.518Z,0
2017-05-03T19:56:04.238Z,0
2017-05-03T19:57:05.112Z,0
2017-05-03T19:58:06.045Z,0
2017-05-03T19:59:06.865Z,0
2017-05-03T20:00:07.719Z,0
2017-05-03T20:01:08.476Z,0
2017-05-03T20:02:09.385Z,0
2017-05-03T20:03:10.101Z,0
2017-05-03T20:04:11.027Z,0
2017-05-03T20:05:11.922Z,0
2017-05-03T20:06:12.632Z,0
2017-05-03T20:07:13.554Z,0
2017-05-03T20:08:14.619Z,0
2017-05-03T20:10:50.127Z,0
2017-05-03T20:11:50.805Z,0
2017-05-03T20:12:51.503Z,0
2017-05-03T20:13:52.491Z,0
2017-05-03T20:14:53.262Z,0
2017-05-03T20:15:53.935Z,0
2017-05-03T20:16:54.634Z,0
2017-05-03T20:17:57.527Z,0
2017-05-03T20:18:58.739Z,0
2017-05-03T20:19:59.490Z,0
2017-05-03T20:21:00.251Z,0
2017-05-03T20:22:01.366Z,0
2017-05-03T20:23:02.049Z,0
2017-05-03T20:24:02.728Z,0
2017-05-03T20:25:03.551Z,0
2017-05-03T20:26:04.520Z,0
2017-05-03T20:27:05.258Z,0
2017-05-03T20:28:06.099Z,0
2017-05-03T20:29:06.810Z,0
2017-05-03T20:30:10.106Z,0
2017-05-03T20:31:14.037Z,0
2017-05-03T20:32:14.876Z,0
2017-05-03T20:33:15.668Z,0
2017-05-03T20:34:16.355Z,0
2017-05-03T20:35:17.801Z,0
2017-05-03T20:36:19.283Z,0
2017-05-03T20:37:19.977Z,0
2017-05-03T20:38:20.645Z,0
2017-05-03T20:39:21.340Z,0
2017-05-03T20:40:22.139Z,0
2017-05-03T20:41:22.811Z,0
2017-05-03T20:42:23.524Z,0
2017-05-03T20:43:24.510Z,0
2017-05-03T20:44:25.294Z,0
2017-05-03T20:45:25.999Z,0
2017-05-03T20:46:26.669Z,0
2017-05-03T20:47:27.348Z,0
2017-05-03T20:48:28.020Z,0
2017-05-03T20:49:28.761Z,0
2017-05-03T20:50:29.432Z,0
2017-05-03T20:51:30.094Z,0
2017-05-03T20:52:30.760Z,0
2017-05-03T20:53:31.425Z,0
2017-05-03T20:54:32.117Z,0
2017-05-03T20:55:32.801Z,0
2017-05-03T20:56:33.493Z,0
2017-05-03T20:57:34.160Z,0
2017-05-03T20:58:34.840Z,0
2017-05-03T20:59:35.552Z,0
2017-05-03T21:00:36.220Z,0
2017-05-03T21:01:36.905Z,0
2017-05-03T21:02:37.592Z,0
2017-05-03T21:03:38.291Z,0
2017-05-03T21:04:38.980Z,0
2017-05-03T21:05:39.693Z,0
2017-05-03T21:06:40.382Z,0
2017-05-03T21:07:41.096Z,0
2017-05-03T21:08:41.771Z,0
2017-05-03T21:09:42.438Z,0
2017-05-03T21:10:43.112Z,0
2017-05-03T21:11:43.778Z,0
2017-05-03T21:12:44.468Z,0
2017-05-03T21:13:45.136Z,0
2017-05-03T21:14:45.903Z,0
2017-05-03T21:15:46.580Z,0
2017-05-03T21:16:47.254Z,0
2017-05-03T21:17:47.919Z,0
2017-05-03T21:18:48.642Z,0
2017-05-03T21:19:49.364Z,0
2017-05-03T21:20:50.038Z,0
2017-05-03T21:21:50.719Z,0
2017-05-03T21:22:51.582Z,0
2017-05-03T21:23:52.158Z,0
2017-05-03T21:24:52.911Z,0
2017-05-03T21:25:53.783Z,0
2017-05-03T21:26:54.446Z,0
2017-05-03T21:27:55.306Z,0
2017-05-03T21:28:56.030Z,0
2017-05-03T21:29:57.930Z,0
2017-05-03T21:30:58.598Z,0
2017-05-03T21:31:59.280Z,0
2017-05-03T21:33:00.611Z,0
2017-05-03T21:34:01.452Z,0
2017-05-03T21:35:02.221Z,0
2017-05-03T21:36:02.884Z,0
2017-05-03T21:37:04.405Z,0
2017-05-03T21:38:05.613Z,0
2017-05-03T21:39:06.288Z,0
2017-05-03T21:40:06.961Z,0
2017-05-03T21:41:07.709Z,0
2017-05-03T21:42:08.488Z,0
2017-05-03T21:43:09.296Z,0
2017-05-03T21:44:09.981Z,0
2017-05-03T21:45:12.638Z,0
2017-05-03T21:46:14.447Z,0
2017-05-03T21:47:15.413Z,0
2017-05-03T21:48:16.377Z,0
2017-05-03T21:49:17.059Z,0
2017-05-03T21:50:17.752Z,0
2017-05-03T21:51:18.445Z,0
2017-05-03T21:52:19.122Z,0
2017-05-03T21:53:19.807Z,0
2017-05-03T21:54:20.473Z,0
2017-05-03T21:55:21.135Z,0
2017-05-03T21:56:21.804Z,0
2017-05-03T21:57:22.494Z,0
2017-05-03T21:58:23.158Z,0
2017-05-03T21:59:23.839Z,0
2017-05-03T22:00:24.506Z,0
2017-05-03T22:01:25.163Z,0
2017-05-03T22:02:25.843Z,0
2017-05-03T22:03:26.521Z,0
2017-05-03T22:04:27.196Z,0
2017-05-03T22:05:27.854Z,0
2017-05-03T22:06:28.530Z,0
2017-05-03T22:07:29.198Z,0
2017-05-03T22:08:29.879Z,0
2017-05-03T22:09:30.542Z,0
2017-05-03T22:10:31.219Z,0
2017-05-03T22:11:31.903Z,0
2017-05-03T22:12:32.570Z,0
2017-05-03T22:13:33.295Z,0
2017-05-03T22:14:33.970Z,0
2017-05-03T22:15:34.682Z,0
2017-05-03T22:16:35.350Z,0
2017-05-03T22:17:36.026Z,0
2017-05-03T22:18:36.694Z,0
2017-05-03T22:19:37.385Z,0
2017-05-03T22:20:38.046Z,0
